Time;durP1;ratioP1;P1;durP2;ratioP2;P2;SDS_P1;SDS_P2;PMS_P1;PMS_P2;Temp;Humidity;BMP_temperature;BMP_pressure;BME280_temperature;BME280_humidity;BME280_pressure;Samples;Min_cycle;Max_cycle;Signal;HPM_P1;HPM_P2
2022/02/08 00:02:36;;;;;;;9.13;1.70;;;;;;;;;;6013037;23;20601;-88
2022/02/08 00:05:41;;;;;;;4.03;1.80;;;;;;;;;;6020485;23;20510;-88
2022/02/08 00:08:46;;;;;;;6.60;1.87;;;;;;;;;;6037650;23;20506;-87
2022/02/08 00:11:50;;;;;;;4.03;1.90;;;;;;;;;;6037821;23;20510;-88
2022/02/08 00:14:54;;;;;;;5.30;1.83;;;;;;;;;;6037396;23;20522;-88
2022/02/08 00:17:59;;;;;;;7.80;1.67;;;;;;;;;;6021407;23;20522;-88
2022/02/08 00:21:03;;;;;;;4.20;1.70;;;;;;;;;;5988835;23;20518;-88
2022/02/08 00:24:08;;;;;;;6.57;2.10;;;;;;;;;;6021463;23;20561;-87
2022/02/08 00:27:12;;;;;;;5.27;1.80;;;;;;;;;;6013905;23;20884;-86
2022/02/08 00:30:17;;;;;;;3.77;1.60;;;;;;;;;;6037281;23;20518;-88
2022/02/08 00:33:21;;;;;;;9.33;2.03;;;;;;;;;;6021019;23;20502;-87
2022/02/08 00:36:25;;;;;;;4.30;1.70;;;;;;;;;;5997904;23;20617;-86
2022/02/08 00:39:31;;;;;;;7.23;1.80;;;;;;;;;;6036694;23;20518;-87
2022/02/08 00:42:35;;;;;;;7.80;2.07;;;;;;;;;;6021429;23;20561;-87
2022/02/08 00:45:56;;;;;;;8.20;2.10;;;;;;;;;;6020136;23;20514;-87
2022/02/08 00:49:02;;;;;;;4.30;1.50;;;;;;;;;;6038786;23;20518;-85
2022/02/08 00:52:14;;;;;;;4.87;1.87;;;;;;;;;;6055422;23;20510;-84
2022/02/08 00:55:18;;;;;;;3.07;1.63;;;;;;;;;;6022669;23;20510;-84
2022/02/08 00:58:24;;;;;;;5.13;1.83;;;;;;;;;;6012873;23;20566;-84
2022/02/08 01:01:30;;;;;;;7.87;1.83;;;;;;;;;;6022002;23;20508;-84
2022/02/08 01:04:35;;;;;;;8.13;1.90;;;;;;;;;;6005409;23;20522;-84
2022/02/08 01:07:41;;;;;;;4.93;1.87;;;;;;;;;;6045704;23;20573;-84
2022/02/08 01:10:45;;;;;;;5.80;2.00;;;;;;;;;;6037927;23;20551;-84
2022/02/08 01:13:49;;;;;;;2.93;1.37;;;;;;;;;;6012127;23;20549;-84
2022/02/08 01:16:53;;;;;;;3.53;1.60;;;;;;;;;;6031921;23;20581;-84
2022/02/08 01:20:20;;;;;;;5.67;1.73;;;;;;;;;;6020657;23;20522;-88
2022/02/08 01:23:24;;;;;;;12.07;2.10;;;;;;;;;;6021198;23;20562;-88
2022/02/08 01:26:30;;;;;;;6.07;1.73;;;;;;;;;;6037484;23;20581;-84
2022/02/08 01:29:53;;;;;;;3.97;1.53;;;;;;;;;;6022651;23;20519;-84
2022/02/08 01:40:04;;;;;;;4.50;1.80;;;;;;;;;;6020295;23;20522;-88
2022/02/08 01:43:08;;;;;;;4.40;1.87;;;;;;;;;;6020859;23;20562;-88
2022/02/08 01:49:29;;;;;;;6.37;1.50;;;;;;;;;;6020180;23;20514;-88
2022/02/08 01:52:33;;;;;;;5.13;1.50;;;;;;;;;;6004806;23;21043;-88
2022/02/08 01:55:38;;;;;;;3.60;1.63;;;;;;;;;;6035527;23;20522;-88
2022/02/08 01:58:42;;;;;;;7.57;2.03;;;;;;;;;;6037279;23;20805;-89
2022/02/08 02:02:02;;;;;;;4.63;1.87;;;;;;;;;;6021327;23;20510;-84
2022/02/08 02:05:07;;;;;;;6.03;1.63;;;;;;;;;;6021343;23;20510;-84
2022/02/08 02:08:11;;;;;;;7.13;1.70;;;;;;;;;;6036632;23;20856;-88
2022/02/08 02:11:18;;;;;;;5.27;1.87;;;;;;;;;;6022150;23;20518;-85
2022/02/08 02:14:23;;;;;;;7.63;1.93;;;;;;;;;;6020654;23;20510;-87
2022/02/08 02:17:27;;;;;;;5.43;1.70;;;;;;;;;;6046459;23;20589;-86
2022/02/08 02:20:33;;;;;;;6.70;2.17;;;;;;;;;;6022179;23;20514;-86
2022/02/08 02:23:37;;;;;;;7.00;2.00;;;;;;;;;;6022109;23;20574;-84
2022/02/08 02:26:41;;;;;;;5.63;1.70;;;;;;;;;;6035042;23;20581;-84
2022/02/08 02:29:45;;;;;;;6.10;2.03;;;;;;;;;;6039920;23;20843;-84
2022/02/08 02:32:50;;;;;;;5.50;1.50;;;;;;;;;;6039372;23;20517;-85
2022/02/08 02:35:56;;;;;;;6.50;1.70;;;;;;;;;;6014159;23;20597;-85
2022/02/08 02:39:00;;;;;;;2.83;1.37;;;;;;;;;;6038777;23;20509;-85
2022/02/08 02:42:12;;;;;;;7.50;2.00;;;;;;;;;;6022316;23;20821;-85
2022/02/08 02:45:20;;;;;;;4.43;1.60;;;;;;;;;;6038629;23;20514;-86
2022/02/08 02:48:25;;;;;;;9.17;1.87;;;;;;;;;;6022156;23;20510;-86
2022/02/08 02:51:33;;;;;;;5.47;1.63;;;;;;;;;;6054589;23;20506;-88
2022/02/08 02:54:37;;;;;;;5.67;2.00;;;;;;;;;;6037862;23;21043;-85
2022/02/08 02:57:45;;;;;;;4.37;1.80;;;;;;;;;;5996953;23;20577;-84
2022/02/08 03:01:05;;;;;;;6.67;1.47;;;;;;;;;;6039229;23;20522;-84
2022/02/08 03:20:56;;;;;;;7.00;1.90;;;;;;;;;;6029122;23;20565;-84
2022/02/08 03:24:00;;;;;;;3.80;1.93;;;;;;;;;;6038544;23;20561;-84
2022/02/08 03:27:04;;;;;;;1.90;1.40;;;;;;;;;;6015162;23;20581;-84
2022/02/08 03:30:09;;;;;;;5.10;1.80;;;;;;;;;;6054855;23;20514;-84
2022/02/08 03:33:14;;;;;;;5.50;1.77;;;;;;;;;;6039617;23;20506;-85
2022/02/08 03:36:20;;;;;;;8.10;3.07;;;;;;;;;;6080686;23;20645;-88
2022/02/08 03:39:35;;;;;;;8.13;1.90;;;;;;;;;;6117172;23;20502;-88
2022/02/08 03:43:10;;;;;;;6.47;1.70;;;;;;;;;;6132434;23;20517;-88
2022/02/08 03:46:18;;;;;;;6.80;1.83;;;;;;;;;;6136689;23;20882;-88
2022/02/08 03:49:25;;;;;;;7.93;2.00;;;;;;;;;;6162606;23;20867;-88
2022/02/08 03:52:29;;;;;;;6.30;2.00;;;;;;;;;;6162186;23;20504;-88
2022/02/08 03:55:36;;;;;;;3.10;1.77;;;;;;;;;;6145753;23;20823;-88
2022/02/08 03:58:41;;;;;;;8.30;1.90;;;;;;;;;;6161866;23;20516;-89
2022/02/08 04:05:05;;;;;;;4.80;1.53;;;;;;;;;;6168700;23;20597;-88
2022/02/08 04:08:12;;;;;;;7.90;1.83;;;;;;;;;;6152012;23;20572;-89
2022/02/08 04:11:16;;;;;;;9.10;2.10;;;;;;;;;;6168926;23;20560;-88
2022/02/08 04:37:59;;;;;;;5.07;1.77;;;;;;;;;;6170701;23;20592;-89
2022/02/08 04:41:06;;;;;;;5.63;1.53;;;;;;;;;;6178560;23;20505;-88
2022/02/08 04:44:27;;;;;;;4.30;1.83;;;;;;;;;;6152019;23;20627;-88
2022/02/08 04:47:37;;;;;;;3.00;1.63;;;;;;;;;;6170954;23;21148;-88
2022/02/08 04:50:42;;;;;;;8.33;2.13;;;;;;;;;;6179238;23;20505;-88
2022/02/08 04:53:54;;;;;;;6.00;1.57;;;;;;;;;;6151599;23;20549;-88
2022/02/08 04:57:11;;;;;;;4.17;1.67;;;;;;;;;;6191233;23;20572;-88
2022/02/08 05:00:31;;;;;;;5.50;1.70;;;;;;;;;;6161214;23;20517;-88
2022/02/08 05:44:09;;;;;;;5.67;1.50;;;;;;;;;;6177972;23;20560;-89
2022/02/08 05:47:13;;;;;;;4.67;1.60;;;;;;;;;;6155178;23;20580;-88
2022/02/08 05:53:45;;;;;;;6.73;1.70;;;;;;;;;;6180214;23;20501;-86
2022/02/08 05:56:53;;;;;;;3.60;1.40;;;;;;;;;;6158096;23;20901;-85
2022/02/08 05:59:57;;;;;;;5.00;1.63;;;;;;;;;;6164033;23;20501;-86
2022/02/08 06:03:05;;;;;;;2.67;1.10;;;;;;;;;;6161795;23;20866;-85
2022/02/08 06:06:19;;;;;;;9.47;1.80;;;;;;;;;;6136315;23;20581;-85
2022/02/08 06:09:23;;;;;;;7.83;1.90;;;;;;;;;;6151531;23;20862;-85
2022/02/08 06:12:27;;;;;;;6.37;1.63;;;;;;;;;;6177996;23;20508;-86
2022/02/08 06:15:42;;;;;;;8.80;1.63;;;;;;;;;;6161772;23;20807;-85
2022/02/08 06:18:47;;;;;;;4.73;1.80;;;;;;;;;;6161337;23;20513;-85
2022/02/08 06:21:51;;;;;;;9.13;1.70;;;;;;;;;;6134974;23;20560;-85
2022/02/08 06:24:55;;;;;;;5.43;1.90;;;;;;;;;;6134869;23;20608;-86
2022/02/08 06:27:59;;;;;;;2.83;1.27;;;;;;;;;;6135248;23;20910;-85
2022/02/08 06:31:04;;;;;;;7.90;1.60;;;;;;;;;;6144920;23;20842;-85
2022/02/08 06:34:10;;;;;;;9.00;2.20;;;;;;;;;;6144280;23;20513;-85
2022/02/08 06:37:17;;;;;;;4.57;1.47;;;;;;;;;;6154881;23;20607;-86
2022/02/08 06:40:21;;;;;;;9.07;2.00;;;;;;;;;;6161462;23;20505;-86
2022/02/08 06:43:30;;;;;;;5.60;1.77;;;;;;;;;;6151769;23;20547;-85
2022/02/08 06:46:34;;;;;;;5.20;2.17;;;;;;;;;;6158133;23;20568;-86
2022/02/08 06:49:38;;;;;;;6.07;1.50;;;;;;;;;;6162058;23;20516;-85
2022/02/08 06:52:43;;;;;;;5.47;1.87;;;;;;;;;;6144228;23;21053;-86
2022/02/08 06:55:47;;;;;;;6.73;2.63;;;;;;;;;;6145041;23;20501;-86
2022/02/08 06:58:58;;;;;;;6.07;1.57;;;;;;;;;;6143696;23;20512;-85
2022/02/08 07:02:06;;;;;;;6.60;1.60;;;;;;;;;;6134584;23;20556;-86
2022/02/08 07:05:11;;;;;;;4.90;1.90;;;;;;;;;;6145956;23;20556;-86
2022/02/08 07:08:15;;;;;;;11.77;4.40;;;;;;;;;;6153316;23;20548;-86
2022/02/08 07:11:22;;;;;;;7.43;2.30;;;;;;;;;;6180154;23;20501;-85
2022/02/08 07:14:31;;;;;;;7.57;3.70;;;;;;;;;;6146711;23;21017;-86
2022/02/08 07:17:35;;;;;;;8.93;6.07;;;;;;;;;;6139125;23;20627;-85
2022/02/08 07:20:40;;;;;;;8.30;3.20;;;;;;;;;;6162811;23;20512;-86
2022/02/08 07:23:45;;;;;;;9.07;3.30;;;;;;;;;;6153135;23;20551;-86
2022/02/08 07:26:51;;;;;;;5.27;1.70;;;;;;;;;;6152800;23;20580;-85
2022/02/08 07:29:55;;;;;;;5.00;1.80;;;;;;;;;;6197686;23;20516;-86
2022/02/08 07:33:41;;;;;;;4.13;1.70;;;;;;;;;;6038410;23;20600;-85
2022/02/08 07:40:05;;;;;;;69.87;35.43;;;;;;;;;;6162453;23;20505;-85
2022/02/08 07:43:09;;;;;;;9.83;6.20;;;;;;;;;;6163302;23;20505;-85
2022/02/08 07:46:33;;;;;;;12.60;10.27;;;;;;;;;;6175891;23;20576;-86
2022/02/08 07:49:40;;;;;;;11.83;9.40;;;;;;;;;;6145544;23;20516;-86
2022/02/08 07:52:44;;;;;;;7.57;2.80;;;;;;;;;;6136111;23;20547;-85
2022/02/08 07:55:49;;;;;;;4.97;2.47;;;;;;;;;;6135352;23;20544;-88
2022/02/08 07:58:54;;;;;;;4.70;2.20;;;;;;;;;;6146089;23;20517;-85
2022/02/08 08:02:03;;;;;;;7.23;2.70;;;;;;;;;;6163403;23;20500;-86
2022/02/08 08:05:08;;;;;;;11.33;4.20;;;;;;;;;;6145320;23;20556;-85
2022/02/08 08:08:14;;;;;;;8.23;2.67;;;;;;;;;;6135484;23;20568;-85
2022/02/08 08:11:22;;;;;;;8.83;1.90;;;;;;;;;;6162189;23;20504;-86
2022/02/08 08:14:27;;;;;;;6.43;2.20;;;;;;;;;;6144656;23;20517;-85
2022/02/08 08:21:07;;;;;;;29.97;15.60;;;;;;;;;;6146592;23;20575;-86
2022/02/08 08:24:13;;;;;;;11.00;6.33;;;;;;;;;;6145158;23;20509;-85
2022/02/08 08:27:18;;;;;;;58.57;28.17;;;;;;;;;;6173417;23;20571;-85
2022/02/08 08:30:22;;;;;;;30.37;19.13;;;;;;;;;;6162457;23;20513;-85
2022/02/08 08:34:20;;;;;;;20.70;11.17;;;;;;;;;;6145212;23;20512;-85
2022/02/08 08:37:24;;;;;;;9.67;6.23;;;;;;;;;;6135597;23;20200;-86
2022/02/08 08:40:54;;;;;;;12.13;6.10;;;;;;;;;;6145487;23;20846;-86
2022/02/08 08:44:38;;;;;;;21.97;15.53;;;;;;;;;;6145186;23;20513;-86
2022/02/08 08:51:46;;;;;;;27.87;14.33;;;;;;;;;;6162362;23;20501;-86
2022/02/08 08:54:51;;;;;;;81.60;34.77;;;;;;;;;;6145306;23;20466;-86
2022/02/08 08:57:55;;;;;;;68.37;37.77;;;;;;;;;;6135755;23;20666;-86
2022/02/08 09:00:59;;;;;;;22.57;9.50;;;;;;;;;;6145125;23;20594;-86
2022/02/08 09:04:05;;;;;;;72.57;27.63;;;;;;;;;;6134793;23;20173;-86
2022/02/08 09:07:27;;;;;;;32.33;12.97;;;;;;;;;;6175515;23;20196;-85
2022/02/08 09:10:42;;;;;;;54.27;21.93;;;;;;;;;;6135407;23;20168;-85
2022/02/08 09:14:08;;;;;;;32.73;13.27;;;;;;;;;;6161279;23;20153;-85
2022/02/08 09:24:30;;;;;;;13.67;9.17;;;;;;;;;;6179323;23;20157;-86
2022/02/08 09:30:58;;;;;;;8.00;4.63;;;;;;;;;;6161542;23;20149;-86
2022/02/08 09:34:04;;;;;;;5.03;3.40;;;;;;;;;;6162086;23;20157;-86
2022/02/08 09:37:13;;;;;;;5.10;2.23;;;;;;;;;;6155933;23;20200;-88
2022/02/08 09:40:21;;;;;;;2.90;1.63;;;;;;;;;;6151529;23;20187;-88
2022/02/08 09:43:25;;;;;;;7.77;1.93;;;;;;;;;;6144409;23;20156;-88
2022/02/08 09:46:29;;;;;;;9.87;2.47;;;;;;;;;;6141170;23;20200;-88
2022/02/08 09:49:39;;;;;;;8.70;2.73;;;;;;;;;;6144351;23;20156;-89
2022/02/08 09:52:50;;;;;;;60.30;34.10;;;;;;;;;;6160884;23;20161;-88
2022/02/08 09:55:54;;;;;;;11.97;5.50;;;;;;;;;;6143806;23;20146;-88
2022/02/08 09:58:59;;;;;;;55.63;29.20;;;;;;;;;;6144591;23;20157;-88
2022/02/08 10:02:03;;;;;;;21.60;13.63;;;;;;;;;;6144582;23;20490;-88
2022/02/08 10:05:08;;;;;;;9.27;3.30;;;;;;;;;;6160717;23;20180;-88
2022/02/08 10:08:14;;;;;;;2.63;1.83;;;;;;;;;;6150924;23;20507;-86
2022/02/08 10:11:26;;;;;;;5.00;1.70;;;;;;;;;;6161385;23;20468;-86
2022/02/08 10:18:53;;;;;;;5.43;1.83;;;;;;;;;;6144824;23;20153;-88
2022/02/08 10:21:46;;;;;;;5.67;2.10;;;;;;;;;;6178048;23;20256;-88
2022/02/08 10:24:52;;;;;;;5.90;2.30;;;;;;;;;;6160928;23;20157;-88
2022/02/08 10:28:08;;;;;;;5.30;2.70;;;;;;;;;;6135279;23;20188;-88
2022/02/08 10:37:47;;;;;;;3.00;1.37;;;;;;;;;;6153279;23;20197;-88
2022/02/08 10:40:55;;;;;;;4.80;1.40;;;;;;;;;;6187695;23;20506;-89
2022/02/08 10:44:02;;;;;;;5.93;1.63;;;;;;;;;;6162246;23;20495;-87
2022/02/08 10:47:06;;;;;;;7.13;1.30;;;;;;;;;;6157127;23;20200;-88
2022/02/08 10:50:10;;;;;;;2.80;0.90;;;;;;;;;;6145866;23;20157;-88
2022/02/08 10:53:16;;;;;;;3.23;1.17;;;;;;;;;;6162726;23;20161;-88
2022/02/08 10:56:24;;;;;;;4.90;1.67;;;;;;;;;;6159852;23;20188;-88
2022/02/08 10:59:40;;;;;;;3.97;1.10;;;;;;;;;;6136060;23;20173;-88
2022/02/08 11:02:48;;;;;;;2.93;1.93;;;;;;;;;;6162393;23;20161;-85
2022/02/08 11:06:42;;;;;;;6.00;3.53;;;;;;;;;;6162234;23;20181;-85
2022/02/08 11:09:47;;;;;;;4.43;1.20;;;;;;;;;;6162492;23;20152;-85
2022/02/08 11:13:17;;;;;;;6.10;1.20;;;;;;;;;;6163019;23;20153;-85
2022/02/08 11:16:30;;;;;;;3.30;1.00;;;;;;;;;;6121537;23;20205;-85
2022/02/08 11:23:04;;;;;;;2.37;0.73;;;;;;;;;;6150253;23;20595;-85
2022/02/08 11:26:10;;;;;;;2.10;1.03;;;;;;;;;;6114751;23;20662;-85
2022/02/08 11:29:44;;;;;;;4.93;1.07;;;;;;;;;;6122791;23;20173;-85
2022/02/08 11:33:06;;;;;;;5.60;1.27;;;;;;;;;;6149685;23;20157;-85
2022/02/08 11:46:36;;;;;;;1.90;0.73;;;;;;;;;;6165483;23;20206;-85
2022/02/08 11:53:34;;;;;;;3.00;1.50;;;;;;;;;;6132710;23;20157;-85
2022/02/08 11:57:13;;;;;;;3.07;1.10;;;;;;;;;;6112183;23;20190;-86
2022/02/08 12:00:22;;;;;;;4.50;1.30;;;;;;;;;;6132115;23;20154;-85
2022/02/08 12:03:55;;;;;;;3.87;0.80;;;;;;;;;;6115710;23;20153;-86
2022/02/08 12:10:29;;;;;;;2.10;1.00;;;;;;;;;;6122411;23;20631;-86
2022/02/08 12:28:31;;;;;;;3.80;1.07;;;;;;;;;;6127836;23;20205;-85
2022/02/08 12:34:17;;;;;;;2.20;0.87;;;;;;;;;;6132359;23;20154;-85
2022/02/08 13:01:07;;;;;;;3.23;1.23;;;;;;;;;;6148352;23;20158;-88
2022/02/08 13:04:36;;;;;;;2.67;1.60;;;;;;;;;;6132235;23;20606;-88
2022/02/08 14:21:11;;;;;;;3.20;0.90;;;;;;;;;;6118741;23;20170;-88
2022/02/08 14:24:20;;;;;;;5.10;1.00;;;;;;;;;;6116982;23;20599;-87
2022/02/08 14:30:55;;;;;;;4.43;0.80;;;;;;;;;;6132807;23;20158;-88
2022/02/08 14:34:41;;;;;;;2.30;1.00;;;;;;;;;;6116585;23;20157;-88
2022/02/08 15:08:01;;;;;;;7.73;1.20;;;;;;;;;;6126120;23;20201;-86
2022/02/08 15:11:08;;;;;;;3.33;1.10;;;;;;;;;;6134284;23;20161;-85
2022/02/08 15:14:13;;;;;;;3.37;1.10;;;;;;;;;;6117895;23;20153;-86
2022/02/08 15:17:17;;;;;;;1.63;1.03;;;;;;;;;;6111577;23;20185;-86
2022/02/08 15:20:23;;;;;;;3.57;1.40;;;;;;;;;;6107401;23;20175;-86
2022/02/08 15:23:27;;;;;;;3.83;1.10;;;;;;;;;;6112275;23;20173;-87
2022/02/08 15:26:32;;;;;;;3.13;1.40;;;;;;;;;;6128205;23;20535;-86
2022/02/08 15:29:37;;;;;;;3.27;1.40;;;;;;;;;;6121252;23;20185;-86
2022/02/08 15:32:41;;;;;;;3.67;1.40;;;;;;;;;;6138433;23;20154;-86
2022/02/08 15:35:45;;;;;;;4.33;1.10;;;;;;;;;;6122282;23;20153;-86
2022/02/08 15:38:54;;;;;;;3.80;1.20;;;;;;;;;;6158373;23;20213;-87
2022/02/08 15:41:58;;;;;;;3.43;1.20;;;;;;;;;;6162408;23;20156;-86
2022/02/08 15:45:11;;;;;;;4.30;1.07;;;;;;;;;;6179266;23;20157;-88
2022/02/08 15:48:21;;;;;;;1.97;0.87;;;;;;;;;;6169675;23;20200;-86
2022/02/08 15:51:30;;;;;;;3.13;0.90;;;;;;;;;;6180867;23;20153;-90
2022/02/08 15:54:42;;;;;;;5.13;2.47;;;;;;;;;;6179624;23;20153;-86
2022/02/08 15:58:05;;;;;;;4.13;1.83;;;;;;;;;;6169742;23;20192;-85
2022/02/08 16:01:26;;;;;;;8.57;3.53;;;;;;;;;;6162873;23;20153;-89
2022/02/08 16:08:04;;;;;;;8.33;3.40;;;;;;;;;;6190598;23;20530;-89
2022/02/08 16:17:56;;;;;;;9.63;3.37;;;;;;;;;;6175490;23;20189;-85
2022/02/08 16:22:11;;;;;;;7.53;3.63;;;;;;;;;;6161580;23;20153;-89
2022/02/08 16:31:07;;;;;;;4.93;1.77;;;;;;;;;;6178961;23;20157;-91
2022/02/08 16:51:49;;;;;;;2.57;1.23;;;;;;;;;;6227442;23;20156;-86
2022/02/08 16:54:40;;;;;;;3.97;1.33;;;;;;;;;;6191147;23;20156;-88
2022/02/08 17:01:01;;;;;;;3.77;1.40;;;;;;;;;;6191818;23;20156;-88
2022/02/08 17:04:15;;;;;;;3.57;1.47;;;;;;;;;;6184133;23;20783;-90
2022/02/08 17:07:23;;;;;;;6.57;3.40;;;;;;;;;;6206146;23;20197;-89
2022/02/08 17:10:33;;;;;;;4.67;2.73;;;;;;;;;;6174154;23;20152;-85
2022/02/08 17:13:51;;;;;;;4.73;1.90;;;;;;;;;;6190775;23;20156;-87
2022/02/08 17:46:59;;;;;;;8.23;4.30;;;;;;;;;;6189306;23;20517;-86
2022/02/08 17:50:04;;;;;;;7.37;2.90;;;;;;;;;;6173329;23;20156;-86
2022/02/08 17:53:08;;;;;;;5.43;1.90;;;;;;;;;;6173612;23;20152;-87
2022/02/08 17:56:13;;;;;;;2.87;1.40;;;;;;;;;;6190541;23;20482;-86
2022/02/08 17:59:20;;;;;;;4.37;1.33;;;;;;;;;;6174401;23;20573;-86
2022/02/08 18:02:25;;;;;;;6.13;1.70;;;;;;;;;;6180823;23;20164;-86
2022/02/08 18:05:29;;;;;;;3.50;1.50;;;;;;;;;;6208000;23;20152;-86
2022/02/08 18:08:35;;;;;;;4.73;1.67;;;;;;;;;;6182315;23;20195;-86
2022/02/08 18:11:41;;;;;;;5.33;1.53;;;;;;;;;;6173386;23;20156;-86
2022/02/08 18:14:52;;;;;;;6.73;2.70;;;;;;;;;;6173702;23;20156;-86
2022/02/08 18:18:00;;;;;;;6.33;2.23;;;;;;;;;;6185222;23;20188;-86
2022/02/08 18:21:13;;;;;;;2.70;1.60;;;;;;;;;;6173671;23;20166;-86
2022/02/08 18:27:45;;;;;;;4.40;1.90;;;;;;;;;;6205825;23;20291;-85
2022/02/08 19:12:25;;;;;;;3.87;1.67;;;;;;;;;;6194443;23;20160;-85
2022/02/08 19:22:08;;;;;;;3.67;1.30;;;;;;;;;;6210393;23;20157;-84
2022/02/08 19:25:13;;;;;;;5.20;1.53;;;;;;;;;;6210191;23;20156;-85
2022/02/08 19:28:17;;;;;;;4.20;1.83;;;;;;;;;;6170214;23;20204;-85
2022/02/08 19:31:21;;;;;;;6.60;1.90;;;;;;;;;;6195734;23;20152;-85
2022/02/08 19:34:25;;;;;;;6.67;1.60;;;;;;;;;;6199612;23;20152;-85
2022/02/08 19:37:56;;;;;;;2.33;1.20;;;;;;;;;;6191386;23;20191;-86
2022/02/08 19:41:00;;;;;;;4.73;1.80;;;;;;;;;;6177064;23;20149;-86
2022/02/08 19:45:11;;;;;;;4.03;1.57;;;;;;;;;;6208491;23;20172;-86
2022/02/08 19:48:15;;;;;;;3.93;1.27;;;;;;;;;;6169591;23;20192;-86
2022/02/08 19:52:33;;;;;;;3.73;1.70;;;;;;;;;;6228902;23;20157;-85
2022/02/08 19:55:46;;;;;;;4.70;1.30;;;;;;;;;;6161278;23;20157;-86
2022/02/08 19:58:55;;;;;;;6.60;2.00;;;;;;;;;;6167019;23;20184;-86
2022/02/08 20:02:01;;;;;;;2.70;1.70;;;;;;;;;;6184092;23;20168;-86
2022/02/08 20:05:05;;;;;;;3.47;1.70;;;;;;;;;;6194085;23;20593;-86
2022/02/08 20:08:09;;;;;;;2.83;1.30;;;;;;;;;;6187175;23;20514;-86
2022/02/08 20:11:14;;;;;;;6.20;1.63;;;;;;;;;;6193316;23;20156;-86
2022/02/08 20:14:18;;;;;;;4.67;1.90;;;;;;;;;;6200511;23;20172;-86
2022/02/08 20:17:22;;;;;;;3.73;1.50;;;;;;;;;;6166257;23;20187;-86
2022/02/08 20:20:27;;;;;;;2.60;1.53;;;;;;;;;;6193006;23;20153;-86
2022/02/08 20:23:31;;;;;;;4.53;1.60;;;;;;;;;;6199930;23;20152;-86
2022/02/08 20:29:55;;;;;;;4.20;1.53;;;;;;;;;;6208299;23;20181;-86
2022/02/08 20:32:59;;;;;;;2.57;1.50;;;;;;;;;;6208070;23;20156;-86
2022/02/08 20:36:03;;;;;;;2.87;1.60;;;;;;;;;;6208905;23;20157;-86
2022/02/08 20:39:09;;;;;;;3.43;1.73;;;;;;;;;;6167267;23;20180;-86
2022/02/08 20:42:13;;;;;;;2.87;1.40;;;;;;;;;;6191510;23;20156;-86
2022/02/08 20:45:17;;;;;;;3.27;1.40;;;;;;;;;;6191545;23;20156;-86
2022/02/08 20:48:25;;;;;;;5.80;1.30;;;;;;;;;;6184491;23;20196;-86
2022/02/08 20:51:29;;;;;;;2.23;1.20;;;;;;;;;;6192904;23;20485;-86
2022/02/08 20:54:38;;;;;;;4.10;1.30;;;;;;;;;;6191571;23;20490;-86
2022/02/08 20:57:50;;;;;;;4.27;1.40;;;;;;;;;;6186991;23;20192;-86
2022/02/08 21:00:54;;;;;;;3.30;1.33;;;;;;;;;;6173986;23;20157;-86
2022/02/08 21:04:04;;;;;;;3.30;1.40;;;;;;;;;;6181859;23;20482;-86
2022/02/08 21:07:08;;;;;;;2.97;1.20;;;;;;;;;;6172287;23;20188;-86
2022/02/08 21:10:13;;;;;;;2.10;1.20;;;;;;;;;;6191297;23;20185;-86
2022/02/08 21:13:28;;;;;;;3.13;1.00;;;;;;;;;;6191209;23;20152;-86
2022/02/08 21:16:41;;;;;;;2.47;1.30;;;;;;;;;;6191580;23;20153;-86
2022/02/08 21:19:45;;;;;;;1.90;1.10;;;;;;;;;;6174365;23;20546;-86
2022/02/08 21:22:49;;;;;;;1.93;1.00;;;;;;;;;;6180617;23;20173;-86
2022/02/08 21:25:53;;;;;;;1.50;1.00;;;;;;;;;;6181062;23;20173;-85
2022/02/08 21:47:04;;;;;;;1.60;0.80;;;;;;;;;;6198466;23;20154;-86
2022/02/08 21:49:18;;;;;;;3.37;1.00;;;;;;;;;;6172967;23;20519;-88
2022/02/08 21:52:28;;;;;;;2.93;0.90;;;;;;;;;;6182855;23;20481;-85
2022/02/08 21:55:33;;;;;;;2.97;1.13;;;;;;;;;;6161085;23;20157;-87
2022/02/08 21:58:38;;;;;;;1.93;1.00;;;;;;;;;;6170778;23;20185;-88
2022/02/08 22:01:42;;;;;;;1.27;1.00;;;;;;;;;;6161431;23;20208;-87
2022/02/08 22:04:46;;;;;;;1.97;0.93;;;;;;;;;;6161215;23;20153;-88
2022/02/08 22:08:12;;;;;;;1.30;0.90;;;;;;;;;;6174642;23;20192;-86
2022/02/08 22:21:45;;;;;;;3.47;0.80;;;;;;;;;;6179317;23;20152;-88
2022/02/08 22:25:14;;;;;;;2.40;1.10;;;;;;;;;;6178804;23;20156;-86
2022/02/08 22:28:38;;;;;;;1.40;0.90;;;;;;;;;;6189901;23;20193;-86
2022/02/08 22:35:27;;;;;;;2.80;1.13;;;;;;;;;;6156294;23;20487;-88
2022/02/08 22:38:37;;;;;;;2.40;1.00;;;;;;;;;;6170463;23;20196;-87
2022/02/08 22:44:59;;;;;;;2.37;0.80;;;;;;;;;;6179948;23;20498;-88
2022/02/08 22:48:07;;;;;;;4.03;1.30;;;;;;;;;;6158497;23;20185;-86
2022/02/08 22:51:11;;;;;;;2.93;1.50;;;;;;;;;;6198436;23;20157;-86
2022/02/08 22:54:15;;;;;;;6.47;3.03;;;;;;;;;;6180233;23;20153;-85
2022/02/08 22:57:19;;;;;;;3.53;1.70;;;;;;;;;;6160480;23;20193;-89
2022/02/08 23:00:23;;;;;;;1.83;1.07;;;;;;;;;;6163123;23;20153;-85
2022/02/08 23:03:27;;;;;;;1.43;0.90;;;;;;;;;;6163387;23;20157;-85
2022/02/08 23:06:33;;;;;;;2.43;1.10;;;;;;;;;;6197555;23;20153;-85
2022/02/08 23:09:44;;;;;;;1.70;0.83;;;;;;;;;;6163731;23;20333;-85
2022/02/08 23:12:56;;;;;;;1.97;0.97;;;;;;;;;;6163075;23;20153;-85
2022/02/08 23:39:37;;;;;;;3.40;2.23;;;;;;;;;;6179578;23;20145;-86
2022/02/08 23:42:42;;;;;;;2.37;1.70;;;;;;;;;;6163309;23;20153;-85
2022/02/08 23:45:48;;;;;;;6.23;2.50;;;;;;;;;;6162477;23;20158;-86
2022/02/08 23:52:02;;;;;;;5.83;2.23;;;;;;;;;;6179031;23;20157;-88
2022/02/08 23:55:23;;;;;;;4.00;2.00;;;;;;;;;;6163354;23;20153;-89
2022/02/08 23:58:28;;;;;;;3.73;1.93;;;;;;;;;;6191695;23;20193;-85
